Time;durP1;ratioP1;P1;durP2;ratioP2;P2;SDS_P1;SDS_P2;PMS_P1;PMS_P2;Temp;Humidity;BMP_temperature;BMP_pressure;BME280_temperature;BME280_humidity;BME280_pressure;Samples;Min_cycle;Max_cycle;Signal;HPM_P1;HPM_P2
2021/05/23 00:01:04;;;;;;;0.73;0.68;;;10.70;99.90;;;;;;5070630;28;20097;-58
2021/05/23 00:03:30;;;;;;;1.27;0.68;;;10.70;99.90;;;;;;5074276;28;20099;-58
2021/05/23 00:05:56;;;;;;;0.70;0.70;;;10.70;99.90;;;;;;5074787;28;20567;-57
2021/05/23 00:08:22;;;;;;;1.00;0.82;;;10.70;99.90;;;;;;5074488;28;20040;-57
2021/05/23 00:10:59;;;;;;;2.70;0.90;;;10.60;99.90;;;;;;5074633;28;20025;-58
2021/05/23 00:13:30;;;;;;;2.15;0.98;;;10.60;99.90;;;;;;5073428;28;20078;-58
2021/05/23 00:16:08;;;;;;;0.60;0.60;;;10.60;99.90;;;;;;5072539;28;20447;-55
2021/05/23 00:18:38;;;;;;;2.50;0.82;;;10.50;99.90;;;;;;5074472;28;20520;-58
2021/05/23 00:21:05;;;;;;;0.82;0.70;;;10.40;99.90;;;;;;5074341;28;20069;-58
2021/05/23 00:23:32;;;;;;;1.30;0.70;;;10.30;99.90;;;;;;5074210;28;20206;-59
2021/05/23 00:25:58;;;;;;;0.90;0.65;;;10.30;99.90;;;;;;5074362;28;20550;-57
2021/05/23 00:28:24;;;;;;;0.90;0.60;;;10.20;99.90;;;;;;5073121;28;20060;-58
2021/05/23 00:30:49;;;;;;;0.95;0.50;;;10.10;99.90;;;;;;5076228;28;20375;-59
2021/05/23 00:33:15;;;;;;;1.25;0.80;;;10.10;99.90;;;;;;5074871;28;20016;-58
2021/05/23 00:35:41;;;;;;;2.47;0.68;;;10.00;99.90;;;;;;5075561;28;20099;-58
2021/05/23 00:38:07;;;;;;;0.60;0.55;;;10.00;99.90;;;;;;5075771;28;20407;-57
2021/05/23 00:40:35;;;;;;;0.98;0.70;;;10.00;99.90;;;;;;5075646;28;20028;-58
2021/05/23 00:43:00;;;;;;;2.17;1.00;;;9.90;99.90;;;;;;5074329;28;20021;-58
2021/05/23 00:45:26;;;;;;;1.33;0.82;;;9.80;99.90;;;;;;5075623;28;20031;-58
2021/05/23 00:47:52;;;;;;;0.65;0.65;;;9.80;99.90;;;;;;5073844;28;20471;-58
2021/05/23 00:50:25;;;;;;;2.70;0.90;;;9.70;99.90;;;;;;5075479;28;20083;-55
2021/05/23 00:52:55;;;;;;;1.88;0.80;;;9.60;99.90;;;;;;5094661;28;20035;-58
2021/05/23 00:55:21;;;;;;;1.20;0.75;;;9.60;99.90;;;;;;5095552;28;20044;-58
2021/05/23 00:57:48;;;;;;;1.70;0.90;;;9.60;99.90;;;;;;5094411;28;20064;-58
2021/05/23 01:00:39;;;;;;;1.08;0.90;;;9.50;99.90;;;;;;5095758;28;20074;-57
2021/05/23 01:03:25;;;;;;;1.73;0.85;;;9.50;99.90;;;;;;5095520;28;20024;-57
2021/05/23 01:05:51;;;;;;;1.73;1.00;;;9.50;99.90;;;;;;5095380;28;20070;-58
2021/05/23 01:08:16;;;;;;;1.33;0.90;;;9.40;99.90;;;;;;5094422;28;20031;-58
2021/05/23 01:11:03;;;;;;;1.98;1.00;;;9.30;99.90;;;;;;5095377;28;20023;-57
2021/05/23 01:13:35;;;;;;;1.33;1.20;;;9.20;99.90;;;;;;5093369;28;20028;-58
2021/05/23 01:16:21;;;;;;;2.38;0.90;;;9.10;99.90;;;;;;5095456;28;20081;-58
2021/05/23 01:18:51;;;;;;;1.38;0.90;;;9.00;99.90;;;;;;5095348;28;20036;-58
2021/05/23 01:21:19;;;;;;;3.00;1.05;;;8.90;99.90;;;;;;5095190;28;20103;-57
2021/05/23 01:23:47;;;;;;;2.47;0.90;;;8.90;99.90;;;;;;5095313;28;20031;-57
2021/05/23 01:26:14;;;;;;;1.75;0.80;;;8.90;99.90;;;;;;5095030;28;20079;-58
2021/05/23 01:28:48;;;;;;;1.08;0.90;;;8.90;99.90;;;;;;5092644;28;20065;-58
2021/05/23 01:31:18;;;;;;;1.63;1.00;;;8.90;99.90;;;;;;5095565;28;20332;-58
2021/05/23 01:33:50;;;;;;;0.95;0.90;;;8.80;99.90;;;;;;5095091;28;20104;-58
2021/05/23 01:36:16;;;;;;;1.30;0.80;;;8.80;99.90;;;;;;5085938;28;20021;-57
2021/05/23 01:38:43;;;;;;;0.73;0.73;;;8.80;99.90;;;;;;5074563;28;20043;-56
2021/05/23 01:41:09;;;;;;;4.30;1.30;;;8.70;99.90;;;;;;5074638;28;20016;-58
2021/05/23 01:43:36;;;;;;;1.80;1.13;;;8.70;99.90;;;;;;5073371;28;20028;-58
2021/05/23 01:46:03;;;;;;;1.20;0.75;;;8.70;99.90;;;;;;5074495;28;20032;-58
2021/05/23 01:48:29;;;;;;;1.10;1.00;;;8.60;99.90;;;;;;5074603;28;20104;-59
2021/05/23 01:50:55;;;;;;;2.00;1.20;;;8.60;99.90;;;;;;5077627;28;20404;-58
2021/05/23 01:53:20;;;;;;;2.00;1.27;;;8.60;99.90;;;;;;5093313;28;20126;-59
2021/05/23 01:55:46;;;;;;;3.20;1.20;;;8.50;99.90;;;;;;5094338;28;20425;-59
2021/05/23 01:58:12;;;;;;;2.45;1.17;;;8.50;99.90;;;;;;5093383;28;20032;-57
2021/05/23 02:00:44;;;;;;;2.75;1.52;;;8.40;99.90;;;;;;5094242;28;20028;-58
2021/05/23 02:03:11;;;;;;;1.48;1.00;;;8.30;99.90;;;;;;5093409;28;20096;-59
2021/05/23 02:05:40;;;;;;;1.65;1.10;;;8.30;99.90;;;;;;5094260;28;20024;-56
2021/05/23 02:08:07;;;;;;;4.47;1.20;;;8.20;99.90;;;;;;5094395;28;20047;-58
2021/05/23 02:10:34;;;;;;;4.30;1.55;;;8.20;99.90;;;;;;5094390;28;20370;-56
2021/05/23 02:13:00;;;;;;;2.15;1.40;;;8.20;99.90;;;;;;5092967;28;20028;-57
2021/05/23 02:15:26;;;;;;;1.77;1.30;;;8.10;99.90;;;;;;5094275;28;20412;-56
2021/05/23 02:17:51;;;;;;;1.70;1.42;;;8.10;99.90;;;;;;5094184;28;20043;-59
2021/05/23 02:20:20;;;;;;;3.22;1.55;;;8.00;99.90;;;;;;5094123;28;20465;-59
2021/05/23 02:22:48;;;;;;;2.00;1.67;;;7.90;99.90;;;;;;5093963;28;20107;-58
2021/05/23 02:25:19;;;;;;;3.20;1.70;;;7.90;99.90;;;;;;5093194;28;20107;-57
2021/05/23 02:27:47;;;;;;;3.53;1.48;;;7.90;99.90;;;;;;5092746;28;20020;-58
2021/05/23 02:30:19;;;;;;;1.60;1.45;;;7.80;99.90;;;;;;5094025;28;20024;-58
2021/05/23 02:32:45;;;;;;;2.28;1.67;;;7.70;99.90;;;;;;5093866;28;20625;-58
2021/05/23 02:35:14;;;;;;;3.90;2.20;;;7.70;99.90;;;;;;5093776;28;20107;-57
2021/05/23 02:37:40;;;;;;;3.80;1.40;;;7.60;99.90;;;;;;5053417;28;20391;-59
2021/05/23 02:40:09;;;;;;;3.63;1.80;;;7.60;99.90;;;;;;5053556;28;20025;-58
2021/05/23 02:42:36;;;;;;;1.75;1.65;;;7.50;99.90;;;;;;5052230;28;20435;-58
2021/05/23 02:45:03;;;;;;;1.63;1.50;;;7.50;99.90;;;;;;5053475;28;20109;-56
2021/05/23 02:47:29;;;;;;;5.78;1.88;;;7.50;99.90;;;;;;5053301;28;20033;-58
2021/05/23 02:49:54;;;;;;;2.15;1.38;;;7.40;99.90;;;;;;5053598;28;20032;-58
2021/05/23 02:52:20;;;;;;;2.15;1.20;;;7.40;99.90;;;;;;5083542;28;20043;-57
2021/05/23 02:54:45;;;;;;;2.17;1.70;;;7.40;99.90;;;;;;5093363;28;20047;-57
2021/05/23 02:57:11;;;;;;;4.38;1.63;;;7.40;99.90;;;;;;5092081;28;20016;-58
2021/05/23 02:59:37;;;;;;;3.55;1.70;;;7.30;99.90;;;;;;5093573;28;20069;-58
2021/05/23 03:02:02;;;;;;;2.20;1.58;;;7.30;99.90;;;;;;5093169;28;20467;-55
2021/05/23 03:04:29;;;;;;;2.58;1.80;;;7.30;99.90;;;;;;5093455;28;20111;-58
2021/05/23 03:06:55;;;;;;;2.38;1.77;;;7.30;99.90;;;;;;5093174;28;20111;-56
2021/05/23 03:09:20;;;;;;;2.33;1.83;;;7.30;99.90;;;;;;5093250;28;20512;-56
2021/05/23 03:11:46;;;;;;;1.70;1.60;;;7.20;99.90;;;;;;5090497;28;20124;-58
2021/05/23 03:14:13;;;;;;;1.67;1.52;;;7.20;99.90;;;;;;5093355;28;20031;-58
2021/05/23 03:16:39;;;;;;;2.95;1.40;;;7.20;99.90;;;;;;5091522;28;20032;-58
2021/05/23 03:19:06;;;;;;;1.55;1.42;;;7.30;99.90;;;;;;5093226;28;20028;-56
2021/05/23 03:21:32;;;;;;;1.83;1.30;;;7.20;99.90;;;;;;5091782;28;20469;-57
2021/05/23 03:23:57;;;;;;;2.03;1.52;;;7.20;99.90;;;;;;5092833;28;20103;-58
2021/05/23 03:26:23;;;;;;;4.80;1.90;;;7.30;99.90;;;;;;5092985;28;20027;-58
2021/05/23 03:28:49;;;;;;;1.30;1.20;;;7.30;99.90;;;;;;5090732;28;20023;-55
2021/05/23 03:31:14;;;;;;;2.75;1.75;;;7.30;99.90;;;;;;5092757;28;20031;-56
2021/05/23 03:33:40;;;;;;;2.55;1.55;;;7.40;99.90;;;;;;5092853;28;20073;-58
2021/05/23 03:36:05;;;;;;;3.67;1.58;;;7.40;99.90;;;;;;5085139;28;20043;-57
2021/05/23 03:38:31;;;;;;;1.40;1.30;;;7.50;99.90;;;;;;5072245;28;20017;-58
2021/05/23 03:40:57;;;;;;;1.65;1.40;;;7.50;99.90;;;;;;5072483;28;20025;-56
2021/05/23 03:43:22;;;;;;;2.40;1.40;;;7.50;99.90;;;;;;5070237;28;20019;-58
2021/05/23 03:45:48;;;;;;;2.55;1.35;;;7.50;99.90;;;;;;5072218;28;20475;-58
2021/05/23 03:48:13;;;;;;;1.77;1.50;;;7.60;99.90;;;;;;5072510;28;20029;-57
2021/05/23 03:50:39;;;;;;;3.30;1.70;;;7.70;99.90;;;;;;5073464;28;20455;-58
2021/05/23 03:53:04;;;;;;;3.38;1.67;;;8.20;99.90;;;;;;5092663;28;20028;-58
2021/05/23 03:55:30;;;;;;;3.15;1.55;;;9.60;99.90;;;;;;5092275;28;20048;-58
2021/05/23 03:57:57;;;;;;;1.58;0.95;;;11.10;99.90;;;;;;5091329;28;20168;-57
2021/05/23 04:00:24;;;;;;;2.90;1.25;;;12.30;99.90;;;;;;5092655;28;20013;-58
2021/05/23 04:02:54;;;;;;;1.45;1.15;;;12.70;99.90;;;;;;5092383;28;20518;-59
2021/05/23 04:05:23;;;;;;;1.58;1.15;;;12.30;99.90;;;;;;5092607;28;20154;-58
2021/05/23 04:07:49;;;;;;;0.82;0.80;;;11.90;99.90;;;;;;5092472;28;20067;-58
2021/05/23 04:10:19;;;;;;;2.80;0.95;;;12.40;99.90;;;;;;5091018;28;20024;-58
2021/05/23 04:12:47;;;;;;;1.60;1.00;;;12.50;99.90;;;;;;5089856;28;20431;-58
2021/05/23 04:15:14;;;;;;;2.83;0.93;;;12.30;99.90;;;;;;5092463;28;20141;-59
2021/05/23 04:17:40;;;;;;;2.08;0.90;;;13.10;99.90;;;;;;5092248;28;20025;-58
2021/05/23 04:20:09;;;;;;;1.42;1.00;;;14.40;99.90;;;;;;5092348;28;20520;-58
2021/05/23 04:22:34;;;;;;;1.20;1.10;;;15.80;96.90;;;;;;5092371;28;20087;-58
2021/05/23 04:25:01;;;;;;;1.95;1.20;;;16.90;92.30;;;;;;5092235;28;20060;-58
2021/05/23 04:27:27;;;;;;;1.88;0.90;;;17.80;88.00;;;;;;5091098;28;20052;-57
2021/05/23 04:29:53;;;;;;;1.67;1.05;;;18.60;84.50;;;;;;5091983;28;20411;-59
2021/05/23 04:32:18;;;;;;;1.02;0.68;;;19.40;81.20;;;;;;5092220;28;20053;-58
2021/05/23 04:34:44;;;;;;;2.90;0.90;;;20.00;78.40;;;;;;5092334;28;20031;-58
2021/05/23 04:37:10;;;;;;;2.60;1.00;;;20.60;76.10;;;;;;5075555;28;20454;-58
2021/05/23 04:39:35;;;;;;;0.85;0.40;;;20.90;75.30;;;;;;5072108;28;20036;-58
2021/05/23 04:42:01;;;;;;;1.38;0.73;;;21.10;74.20;;;;;;5070523;28;20472;-57
2021/05/23 04:44:27;;;;;;;1.88;1.35;;;21.60;73.30;;;;;;5071949;28;20040;-59
2021/05/23 04:46:52;;;;;;;1.48;0.80;;;21.20;70.70;;;;;;5071824;28;20035;-57
2021/05/23 04:49:18;;;;;;;1.73;1.10;;;20.50;71.90;;;;;;5060337;28;20028;-59
2021/05/23 04:51:44;;;;;;;1.10;1.00;;;19.60;72.60;;;;;;5075902;28;20035;-57
2021/05/23 04:54:10;;;;;;;1.00;0.90;;;18.80;74.10;;;;;;5073607;28;20028;-58
2021/05/23 04:56:35;;;;;;;3.40;1.08;;;18.80;74.20;;;;;;5066475;28;20499;-57
2021/05/23 04:59:01;;;;;;;1.80;0.82;;;19.80;72.20;;;;;;5072859;28;20025;-59
2021/05/23 05:01:26;;;;;;;1.13;1.02;;;21.00;69.60;;;;;;5073604;28;20025;-59
2021/05/23 05:03:52;;;;;;;2.08;1.00;;;21.70;66.60;;;;;;5073628;28;20533;-59
2021/05/23 05:06:17;;;;;;;1.08;0.70;;;22.80;64.50;;;;;;5073156;28;20395;-59
2021/05/23 05:08:43;;;;;;;1.20;0.80;;;22.00;63.70;;;;;;5073756;28;20066;-59
2021/05/23 05:11:08;;;;;;;1.48;0.90;;;20.80;66.10;;;;;;5068347;28;20029;-59
2021/05/23 05:13:34;;;;;;;2.60;1.20;;;19.80;68.50;;;;;;5072064;28;20033;-59
2021/05/23 05:15:59;;;;;;;1.38;1.02;;;18.80;69.40;;;;;;5073189;28;20017;-59
2021/05/23 05:18:25;;;;;;;2.00;0.95;;;18.20;71.40;;;;;;5073398;28;20033;-58
2021/05/23 05:20:52;;;;;;;0.93;0.80;;;17.50;71.30;;;;;;5073299;28;20028;-58
2021/05/23 05:23:18;;;;;;;1.60;0.93;;;16.90;73.80;;;;;;5063826;28;20210;-59
2021/05/23 05:25:43;;;;;;;1.20;0.80;;;16.30;74.90;;;;;;5073168;28;20068;-57
2021/05/23 05:28:09;;;;;;;2.30;1.10;;;15.80;76.30;;;;;;5071658;28;20368;-59
2021/05/23 05:30:34;;;;;;;1.08;0.90;;;15.40;77.30;;;;;;5073315;28;20029;-58
2021/05/23 05:33:00;;;;;;;1.92;1.00;;;14.90;78.60;;;;;;5073031;28;20065;-58
2021/05/23 05:35:25;;;;;;;3.75;1.25;;;14.50;80.10;;;;;;5073141;28;20559;-57
2021/05/23 05:37:51;;;;;;;1.13;0.90;;;14.20;81.80;;;;;;5072843;28;20036;-58
2021/05/23 05:40:16;;;;;;;1.17;0.70;;;14.00;82.90;;;;;;5072939;28;20062;-58
2021/05/23 05:42:42;;;;;;;2.67;0.80;;;13.70;84.00;;;;;;5071416;28;20020;-59
2021/05/23 05:45:08;;;;;;;1.23;0.90;;;13.50;84.80;;;;;;5072813;28;20255;-58
2021/05/23 05:47:34;;;;;;;1.10;0.93;;;13.50;86.70;;;;;;5073048;28;20063;-58
2021/05/23 05:50:00;;;;;;;2.13;0.60;;;13.50;86.10;;;;;;5072777;28;20028;-58
2021/05/23 05:52:25;;;;;;;0.55;0.50;;;13.50;86.20;;;;;;5080830;28;20451;-58
2021/05/23 05:54:51;;;;;;;3.17;0.85;;;13.50;86.20;;;;;;5072544;28;20053;-58
2021/05/23 05:57:16;;;;;;;0.73;0.70;;;13.50;86.30;;;;;;5062242;28;20031;-58
2021/05/23 05:59:42;;;;;;;0.75;0.70;;;13.50;86.80;;;;;;5072497;28;20854;-55
2021/05/23 06:02:07;;;;;;;0.75;0.50;;;13.60;87.00;;;;;;5072412;28;20127;-58
2021/05/23 06:04:33;;;;;;;0.80;0.73;;;13.60;86.70;;;;;;5071212;28;20418;-59
2021/05/23 06:06:59;;;;;;;0.60;0.60;;;13.70;86.50;;;;;;5072297;28;20074;-59
2021/05/23 06:09:24;;;;;;;1.17;0.90;;;13.80;86.30;;;;;;5072476;28;20131;-56
2021/05/23 06:11:50;;;;;;;1.80;0.60;;;13.90;86.20;;;;;;5070960;28;20020;-59
2021/05/23 06:14:16;;;;;;;0.90;0.85;;;13.90;85.90;;;;;;5071990;28;20052;-58
2021/05/23 06:16:41;;;;;;;0.68;0.60;;;13.90;86.00;;;;;;5072153;28;20029;-57
2021/05/23 06:19:07;;;;;;;1.40;0.80;;;13.80;86.30;;;;;;5072240;28;20029;-58
2021/05/23 06:21:32;;;;;;;1.48;0.90;;;13.70;86.80;;;;;;5072148;28;20028;-58
2021/05/23 06:23:58;;;;;;;1.00;0.75;;;13.50;87.20;;;;;;5072035;28;20045;-58
2021/05/23 06:26:24;;;;;;;1.42;0.68;;;13.50;88.10;;;;;;5062587;28;20135;-58
2021/05/23 06:28:50;;;;;;;2.33;0.77;;;13.40;88.10;;;;;;5066158;28;20024;-59
2021/05/23 06:31:15;;;;;;;1.00;0.80;;;13.40;88.30;;;;;;5073732;28;20121;-59
2021/05/23 06:33:40;;;;;;;1.60;0.90;;;13.30;89.30;;;;;;5073643;28;20040;-57
2021/05/23 06:36:06;;;;;;;0.93;0.90;;;13.30;89.70;;;;;;5066049;28;20096;-59
2021/05/23 06:38:32;;;;;;;6.53;1.08;;;13.20;89.80;;;;;;5053535;28;20025;-58
2021/05/23 06:40:57;;;;;;;1.80;1.17;;;13.20;90.00;;;;;;5053648;28;20079;-59
2021/05/23 06:43:23;;;;;;;1.45;0.98;;;13.20;90.10;;;;;;5051729;28;20353;-59
2021/05/23 06:45:48;;;;;;;2.35;1.50;;;13.20;90.20;;;;;;5053505;28;20470;-54
2021/05/23 06:48:15;;;;;;;1.25;0.88;;;13.10;90.40;;;;;;5051948;28;20017;-58
2021/05/23 06:50:40;;;;;;;0.93;0.70;;;13.00;90.50;;;;;;5056090;28;20021;-58
2021/05/23 06:53:06;;;;;;;1.00;0.85;;;13.10;90.80;;;;;;5078900;28;20035;-59
2021/05/23 06:55:31;;;;;;;1.60;0.77;;;13.00;90.90;;;;;;5073022;28;20080;-59
2021/05/23 06:57:57;;;;;;;1.17;1.00;;;13.00;91.30;;;;;;5075991;28;20032;-58
2021/05/23 07:00:23;;;;;;;1.27;0.55;;;13.00;92.60;;;;;;5076136;28;20436;-55
2021/05/23 07:02:48;;;;;;;1.23;0.75;;;12.80;93.20;;;;;;5073047;28;20039;-57
2021/05/23 07:05:14;;;;;;;2.40;0.50;;;12.70;93.60;;;;;;5072868;28;20029;-57
2021/05/23 07:07:40;;;;;;;0.82;0.65;;;12.60;94.20;;;;;;5071632;28;20123;-59
2021/05/23 07:10:06;;;;;;;4.22;1.20;;;12.50;94.90;;;;;;5072777;28;20424;-59
2021/05/23 07:12:32;;;;;;;1.58;0.90;;;12.50;95.70;;;;;;5070760;28;20048;-59
2021/05/23 07:14:57;;;;;;;2.83;1.00;;;12.50;96.90;;;;;;5072653;28;20039;-59
2021/05/23 07:17:23;;;;;;;4.13;1.00;;;12.50;97.40;;;;;;5072658;28;20056;-58
2021/05/23 07:19:48;;;;;;;3.95;0.85;;;12.50;97.90;;;;;;5072745;28;20111;-58
2021/05/23 07:22:14;;;;;;;4.10;1.00;;;12.60;98.20;;;;;;5072522;28;20036;-59
2021/05/23 07:24:39;;;;;;;1.00;0.80;;;12.60;99.10;;;;;;5072646;28;20399;-58
2021/05/23 07:27:05;;;;;;;3.47;1.30;;;12.50;99.90;;;;;;5071167;28;20070;-59
2021/05/23 07:29:31;;;;;;;1.90;1.13;;;12.50;99.90;;;;;;5070705;28;20032;-58
2021/05/23 07:31:57;;;;;;;1.45;0.80;;;12.60;99.90;;;;;;5071394;28;20056;-58
2021/05/23 07:34:22;;;;;;;4.15;0.90;;;12.60;99.90;;;;;;5072695;28;20028;-58
2021/05/23 07:36:47;;;;;;;1.77;1.05;;;12.70;99.90;;;;;;5072580;28;20047;-58
2021/05/23 07:39:14;;;;;;;1.95;1.10;;;13.00;99.90;;;;;;5072480;28;20024;-57
2021/05/23 07:41:40;;;;;;;5.07;0.85;;;13.70;99.90;;;;;;5071384;28;20275;-58
2021/05/23 07:44:05;;;;;;;3.22;0.75;;;14.50;98.00;;;;;;5072344;28;20519;-59
2021/05/23 07:46:31;;;;;;;1.50;0.80;;;15.00;96.10;;;;;;5072698;28;20427;-59
2021/05/23 07:48:56;;;;;;;0.75;0.63;;;15.50;95.00;;;;;;5072455;28;20074;-58
2021/05/23 07:51:22;;;;;;;1.98;0.80;;;16.00;93.40;;;;;;5079491;28;20028;-59
2021/05/23 07:53:47;;;;;;;2.55;0.65;;;16.30;92.20;;;;;;5092457;28;20024;-58
2021/05/23 07:56:13;;;;;;;1.60;1.00;;;16.70;91.10;;;;;;5067996;28;20048;-58
2021/05/23 07:58:38;;;;;;;1.15;0.88;;;17.20;89.50;;;;;;5070623;28;20375;-58
2021/05/23 08:01:04;;;;;;;2.28;1.10;;;17.90;87.60;;;;;;5072140;28;20099;-58
2021/05/23 08:03:30;;;;;;;1.98;1.00;;;18.50;85.20;;;;;;5072036;28;20031;-59
2021/05/23 08:05:55;;;;;;;1.30;0.70;;;19.30;81.20;;;;;;5072230;28;20028;-58
2021/05/23 08:08:21;;;;;;;8.20;1.45;;;20.30;78.20;;;;;;5071931;28;20337;-56
2021/05/23 08:10:47;;;;;;;1.95;1.00;;;20.90;73.70;;;;;;5068462;28;20411;-59
2021/05/23 08:13:13;;;;;;;1.17;0.80;;;20.80;74.00;;;;;;5070562;28;20024;-59
2021/05/23 08:15:39;;;;;;;1.48;0.90;;;21.10;73.50;;;;;;5072139;28;20033;-59
2021/05/23 08:18:04;;;;;;;3.20;0.95;;;21.10;73.00;;;;;;5071937;28;20032;-59
2021/05/23 08:20:30;;;;;;;2.38;0.90;;;21.10;72.50;;;;;;5071982;28;20029;-58
2021/05/23 08:22:55;;;;;;;3.13;1.13;;;20.90;71.40;;;;;;5071922;28;20024;-58
2021/05/23 08:25:21;;;;;;;1.40;0.90;;;21.00;70.20;;;;;;5075059;28;20095;-59
2021/05/23 08:27:46;;;;;;;3.53;0.95;;;21.00;70.10;;;;;;5074706;28;20040;-56
2021/05/23 08:30:13;;;;;;;1.83;0.98;;;20.60;70.40;;;;;;5075704;28;20033;-56
2021/05/23 08:32:39;;;;;;;1.10;1.00;;;20.20;71.00;;;;;;5075723;28;20364;-56
2021/05/23 08:35:10;;;;;;;2.17;0.90;;;20.40;70.80;;;;;;5074631;28;20116;-56
2021/05/23 08:37:36;;;;;;;2.92;0.60;;;20.40;70.70;;;;;;5055682;28;20479;-56
2021/05/23 08:40:05;;;;;;;2.03;0.70;;;20.30;70.10;;;;;;5055736;28;20053;-56
2021/05/23 08:42:30;;;;;;;2.92;0.77;;;20.50;69.70;;;;;;5054209;28;20025;-56
2021/05/23 08:44:56;;;;;;;1.58;0.60;;;20.80;68.50;;;;;;5055540;28;20028;-56
2021/05/23 08:47:22;;;;;;;1.75;0.80;;;21.30;66.70;;;;;;5054091;28;20113;-56
2021/05/23 08:49:50;;;;;;;1.67;0.82;;;21.20;67.30;;;;;;5055658;28;20419;-56
2021/05/23 08:52:18;;;;;;;2.47;0.85;;;20.80;67.80;;;;;;5084224;28;20062;-56
2021/05/23 08:54:44;;;;;;;1.30;0.70;;;20.40;68.10;;;;;;5095441;28;20048;-56
2021/05/23 08:57:10;;;;;;;2.55;0.80;;;19.80;68.30;;;;;;5094251;28;20055;-56
2021/05/23 08:59:35;;;;;;;1.48;0.75;;;19.70;68.20;;;;;;5095942;28;20107;-56
2021/05/23 09:02:05;;;;;;;2.13;0.80;;;19.80;68.50;;;;;;5095823;28;20028;-56
2021/05/23 09:04:31;;;;;;;2.67;0.90;;;21.80;64.90;;;;;;5095646;28;20031;-56
2021/05/23 09:07:01;;;;;;;4.03;0.70;;;23.40;62.80;;;;;;5095735;28;20376;-57
2021/05/23 09:09:26;;;;;;;1.50;0.85;;;24.20;59.60;;;;;;5095622;28;20024;-55
2021/05/23 09:11:54;;;;;;;1.33;0.70;;;24.30;59.90;;;;;;5094333;28;20024;-57
2021/05/23 09:14:37;;;;;;;0.82;0.68;;;24.30;59.60;;;;;;5092558;28;20024;-56
2021/05/23 09:17:06;;;;;;;0.60;0.60;;;24.40;53.70;;;;;;5095412;28;20024;-56
2021/05/23 09:19:40;;;;;;;0.52;0.47;;;24.60;58.40;;;;;;5094041;28;20099;-56
2021/05/23 09:22:14;;;;;;;2.25;0.70;;;25.90;55.10;;;;;;5095455;28;20028;-54
2021/05/23 09:24:50;;;;;;;1.63;0.90;;;27.00;51.90;;;;;;5094942;28;20024;-57
2021/05/23 09:27:17;;;;;;;2.35;0.85;;;27.00;49.40;;;;;;5094323;28;20016;-57
2021/05/23 09:29:44;;;;;;;3.03;1.00;;;26.50;51.90;;;;;;5095160;28;20424;-56
2021/05/23 09:32:19;;;;;;;1.00;0.70;;;25.70;53.00;;;;;;5095018;28;20224;-57
2021/05/23 09:34:48;;;;;;;2.10;1.00;;;24.70;50.70;;;;;;5081181;28;20107;-57
2021/05/23 09:37:15;;;;;;;2.70;0.90;;;23.60;53.10;;;;;;5057730;28;20032;-57
2021/05/23 09:39:41;;;;;;;1.05;0.57;;;22.70;55.70;;;;;;5054627;28;20118;-54
2021/05/23 09:42:13;;;;;;;0.82;0.68;;;21.90;56.50;;;;;;5053468;28;20100;-56
2021/05/23 09:44:41;;;;;;;3.15;0.90;;;22.30;56.30;;;;;;5054534;28;20040;-56
2021/05/23 09:47:11;;;;;;;1.90;0.80;;;22.20;56.20;;;;;;5054470;28;20267;-57
2021/05/23 09:49:45;;;;;;;3.65;0.60;;;21.90;56.40;;;;;;5053126;28;20025;-56
2021/05/23 09:52:16;;;;;;;1.27;0.80;;;21.60;56.70;;;;;;5071540;28;20540;-57
2021/05/23 09:55:00;;;;;;;2.40;0.90;;;21.20;57.10;;;;;;5073389;28;20160;-57
2021/05/23 09:57:27;;;;;;;0.82;0.68;;;21.20;56.40;;;;;;5071214;28;20175;-57
2021/05/23 10:00:13;;;;;;;0.95;0.73;;;21.40;56.90;;;;;;5073884;28;20056;-55
2021/05/23 10:02:53;;;;;;;1.23;0.60;;;21.60;56.30;;;;;;5074158;28;20387;-56
2021/05/23 10:05:19;;;;;;;2.63;0.80;;;21.80;55.70;;;;;;5074321;28;20376;-56
2021/05/23 10:07:45;;;;;;;1.35;0.88;;;22.00;55.90;;;;;;5072555;28;20495;-57
2021/05/23 10:10:12;;;;;;;1.52;0.50;;;22.10;55.30;;;;;;5074263;28;20067;-56
2021/05/23 10:12:38;;;;;;;1.77;0.50;;;22.30;55.20;;;;;;5072738;28;20479;-57
2021/05/23 10:15:05;;;;;;;0.93;0.55;;;22.30;54.90;;;;;;5074217;28;20035;-57
2021/05/23 10:17:34;;;;;;;1.80;0.80;;;22.10;55.00;;;;;;5073826;28;20033;-56
2021/05/23 10:20:01;;;;;;;1.85;0.80;;;21.90;55.40;;;;;;5073984;28;20031;-56
2021/05/23 10:22:31;;;;;;;1.00;0.90;;;21.60;55.70;;;;;;5073952;28;20509;-56
2021/05/23 10:25:02;;;;;;;1.20;0.93;;;21.50;56.20;;;;;;5073884;28;20525;-56
2021/05/23 10:27:33;;;;;;;1.75;1.08;;;21.30;56.00;;;;;;5072764;28;20137;-56
2021/05/23 10:29:58;;;;;;;1.30;0.82;;;21.00;56.40;;;;;;5073794;28;20046;-57
2021/05/23 10:32:29;;;;;;;2.35;1.33;;;20.80;57.00;;;;;;5106245;28;20115;-56
2021/05/23 10:34:56;;;;;;;1.80;1.08;;;20.60;56.40;;;;;;5073508;28;20021;-56
2021/05/23 10:37:28;;;;;;;1.17;0.82;;;20.60;56.70;;;;;;5073540;28;20029;-56
2021/05/23 10:39:54;;;;;;;0.80;0.68;;;20.60;56.50;;;;;;5073643;28;20028;-55
2021/05/23 10:42:23;;;;;;;0.80;0.70;;;20.50;56.50;;;;;;5072343;28;20024;-56
2021/05/23 10:44:50;;;;;;;1.83;1.00;;;20.40;56.60;;;;;;5073512;28;20539;-57
2021/05/23 10:47:21;;;;;;;1.55;1.10;;;20.10;57.00;;;;;;5072546;28;20035;-56
2021/05/23 10:49:59;;;;;;;1.35;0.85;;;19.90;57.60;;;;;;5072036;28;20543;-55
2021/05/23 10:52:28;;;;;;;1.30;0.85;;;19.60;58.10;;;;;;5089329;28;20055;-57
2021/05/23 10:55:12;;;;;;;2.50;0.80;;;19.40;58.40;;;;;;5093381;28;20048;-56
2021/05/23 10:57:49;;;;;;;0.60;0.60;;;19.40;58.40;;;;;;5092146;28;20071;-59
2021/05/23 11:00:35;;;;;;;0.88;0.45;;;19.50;57.20;;;;;;5074905;28;20016;-59
2021/05/23 11:03:15;;;;;;;0.50;0.50;;;19.70;57.20;;;;;;5073129;28;20446;-59
2021/05/23 11:05:41;;;;;;;1.15;0.75;;;20.00;56.90;;;;;;5071645;28;20399;-59
2021/05/23 11:08:08;;;;;;;0.60;0.60;;;20.10;56.40;;;;;;5064501;28;20031;-59
2021/05/23 11:10:50;;;;;;;0.73;0.50;;;20.20;56.20;;;;;;5072695;28;20035;-58
2021/05/23 11:13:28;;;;;;;0.43;0.43;;;20.20;56.30;;;;;;5067243;28;20485;-58
2021/05/23 11:15:54;;;;;;;1.52;0.50;;;20.10;56.20;;;;;;5067228;28;20071;-57
2021/05/23 11:18:25;;;;;;;0.57;0.52;;;19.90;56.60;;;;;;5070890;28;20518;-58
2021/05/23 11:21:03;;;;;;;0.30;0.30;;;19.70;56.90;;;;;;5073484;28;20102;-54
2021/05/23 11:23:30;;;;;;;1.98;0.75;;;19.60;56.90;;;;;;5057843;28;20025;-55
2021/05/23 11:26:07;;;;;;;0.68;0.50;;;19.50;57.10;;;;;;5064901;28;20017;-58
2021/05/23 11:28:32;;;;;;;0.60;0.50;;;19.40;57.00;;;;;;5066312;28;20169;-54
2021/05/23 11:30:58;;;;;;;3.05;0.60;;;19.40;57.10;;;;;;5060327;28;20039;-59
2021/05/23 11:33:24;;;;;;;0.30;0.30;;;19.50;56.90;;;;;;5070729;28;20056;-58
2021/05/23 11:35:52;;;;;;;0.68;0.50;;;19.50;57.00;;;;;;5067723;28;20840;-58
2021/05/23 11:38:19;;;;;;;0.30;0.30;;;19.40;57.10;;;;;;5060886;28;20037;-57
2021/05/23 11:40:45;;;;;;;2.25;0.73;;;19.40;57.50;;;;;;5054667;28;20029;-58
2021/05/23 11:43:19;;;;;;;0.28;0.28;;;19.50;57.60;;;;;;5070498;28;20032;-56
2021/05/23 11:46:05;;;;;;;1.90;0.45;;;19.60;57.40;;;;;;5065543;28;20079;-56
2021/05/23 11:48:40;;;;;;;0.55;0.55;;;19.90;56.90;;;;;;5060292;28;20029;-59
2021/05/23 11:51:11;;;;;;;0.35;0.32;;;20.20;56.60;;;;;;5059257;28;20020;-58
2021/05/23 11:53:49;;;;;;;0.45;0.45;;;20.40;55.90;;;;;;5063655;28;20480;-59
2021/05/23 11:56:19;;;;;;;0.50;0.45;;;20.50;55.00;;;;;;5058751;28;20131;-59
2021/05/23 11:58:47;;;;;;;0.57;0.57;;;20.50;55.30;;;;;;5061194;28;20032;-59
2021/05/23 12:01:33;;;;;;;0.50;0.50;;;20.50;55.60;;;;;;5071050;28;20052;-59
2021/05/23 12:04:10;;;;;;;0.60;0.60;;;20.40;55.50;;;;;;5066215;28;20376;-58
2021/05/23 12:06:38;;;;;;;0.50;0.50;;;20.20;56.00;;;;;;5069269;28;20384;-58
2021/05/23 12:09:23;;;;;;;0.50;0.50;;;20.00;56.50;;;;;;5069581;28;20497;-59
2021/05/23 12:11:51;;;;;;;0.77;0.60;;;19.80;56.80;;;;;;5066199;28;20816;-58
2021/05/23 12:14:27;;;;;;;0.80;0.75;;;19.50;57.30;;;;;;5062881;28;20116;-57
2021/05/23 12:17:10;;;;;;;0.68;0.68;;;19.50;57.80;;;;;;5068122;28;20525;-58
2021/05/23 12:19:53;;;;;;;0.63;0.50;;;19.50;58.30;;;;;;5070202;28;20021;-58
2021/05/23 12:22:20;;;;;;;0.45;0.45;;;19.60;58.30;;;;;;5070561;28;20025;-56
2021/05/23 12:24:54;;;;;;;0.50;0.50;;;19.60;57.90;;;;;;5068928;28;20070;-58
2021/05/23 12:27:34;;;;;;;0.60;0.60;;;19.50;58.00;;;;;;5069677;28;20052;-58
2021/05/23 12:30:23;;;;;;;1.05;0.80;;;19.50;58.20;;;;;;5070467;28;20040;-55
2021/05/23 12:32:57;;;;;;;1.42;0.50;;;19.30;58.40;;;;;;5070195;28;20479;-58
2021/05/23 12:35:24;;;;;;;0.90;0.57;;;19.20;58.60;;;;;;5070214;28;20082;-58
2021/05/23 12:37:58;;;;;;;0.50;0.50;;;19.20;58.70;;;;;;5069921;28;20048;-59
2021/05/23 12:40:52;;;;;;;0.47;0.40;;;19.20;58.90;;;;;;5070221;28;20032;-59
2021/05/23 12:43:31;;;;;;;1.25;0.68;;;19.20;60.00;;;;;;5069433;28;20103;-57
2021/05/23 12:46:08;;;;;;;0.43;0.40;;;19.10;59.90;;;;;;5070185;28;20056;-56
2021/05/23 12:48:40;;;;;;;0.47;0.40;;;19.00;60.80;;;;;;5070137;28;20099;-58
2021/05/23 12:51:16;;;;;;;0.47;0.47;;;18.90;60.50;;;;;;5074855;28;20028;-54
2021/05/23 12:53:48;;;;;;;0.50;0.50;;;18.80;60.60;;;;;;5075405;28;20504;-58
2021/05/23 12:56:18;;;;;;;0.70;0.55;;;18.70;61.00;;;;;;5070050;28;20462;-57